Time;durP1;ratioP1;P1;durP2;ratioP2;P2;SDS_P1;SDS_P2;PMS_P1;PMS_P2;Temp;Humidity;BMP_temperature;BMP_pressure;BME280_temperature;BME280_humidity;BME280_pressure;Samples;Min_cycle;Max_cycle;Signal;HPM_P1;HPM_P2
2022/12/24 00:00:24;;;;;;;23.90;14.40;;;4.10;95.80;;;;;;5031372;28;20171;-93
2022/12/24 00:05:31;;;;;;;24.03;14.30;;;4.00;95.80;;;;;;5897664;22;20224;-89
2022/12/24 00:11:25;;;;;;;32.63;15.53;;;4.10;95.80;;;;;;5033180;28;20191;-92
2022/12/24 00:13:54;;;;;;;27.97;16.47;;;4.10;95.80;;;;;;5036883;28;20171;-91
2022/12/24 00:42:11;;;;;;;25.00;14.87;;;4.10;95.90;;;;;;5046792;28;20225;-93
2022/12/24 00:44:39;;;;;;;29.10;14.63;;;4.10;95.90;;;;;;5019894;28;20208;-92
2022/12/24 00:47:45;;;;;;;26.93;15.00;;;4.00;95.90;;;;;;5006327;28;20209;-93
2022/12/24 00:50:20;;;;;;;34.80;15.87;;;4.00;95.90;;;;;;5002399;28;20188;-93
2022/12/24 00:52:59;;;;;;;34.57;16.53;;;4.00;95.90;;;;;;5008229;28;20262;-93
2022/12/24 00:55:36;;;;;;;24.67;16.47;;;4.00;95.90;;;;;;5151298;23;20236;-94
2022/12/24 00:58:02;;;;;;;35.40;16.30;;;4.00;96.00;;;;;;5023808;28;20181;-93
2022/12/24 01:00:27;;;;;;;35.87;16.63;;;4.00;96.00;;;;;;5029999;28;20177;-93
2022/12/24 01:03:38;;;;;;;32.83;16.57;;;4.10;96.00;;;;;;5025428;28;20188;-92
2022/12/24 01:06:29;;;;;;;40.47;17.20;;;4.00;96.00;;;;;;4958325;29;20217;-93
2022/12/24 01:09:47;;;;;;;39.43;16.63;;;4.10;96.00;;;;;;4943433;29;20179;-93
2022/12/24 01:12:18;;;;;;;46.23;19.13;;;4.10;96.00;;;;;;4961587;29;20225;-93
2022/12/24 01:14:44;;;;;;;38.57;16.83;;;4.10;96.00;;;;;;4947607;29;20256;-94
2022/12/24 01:28:16;;;;;;;46.17;18.87;;;4.20;96.10;;;;;;5034484;28;20230;-93
2022/12/24 01:30:42;;;;;;;47.23;19.13;;;4.20;96.10;;;;;;5018269;28;20175;-92
2022/12/24 01:33:08;;;;;;;41.07;18.77;;;4.20;96.10;;;;;;5017894;28;20185;-93
2022/12/24 01:35:33;;;;;;;46.33;19.37;;;4.20;96.10;;;;;;5002488;28;20196;-93
2022/12/24 01:37:59;;;;;;;46.13;19.77;;;4.20;96.10;;;;;;4998600;28;20180;-93
2022/12/24 01:43:30;;;;;;;37.17;18.43;;;4.30;96.10;;;;;;5019201;28;20191;-93
2022/12/24 01:46:16;;;;;;;37.20;19.53;;;4.20;96.20;;;;;;5021375;28;20219;-93
2022/12/24 01:49:14;;;;;;;40.83;18.47;;;4.20;96.10;;;;;;5017166;28;20203;-93
2022/12/24 01:51:46;;;;;;;38.07;18.73;;;4.20;96.20;;;;;;5018136;28;20168;-93
2022/12/24 01:54:18;;;;;;;37.53;18.77;;;4.20;96.20;;;;;;5019005;28;20211;-93
2022/12/24 01:56:54;;;;;;;39.70;20.20;;;4.30;96.20;;;;;;5016705;28;20176;-93
2022/12/24 01:59:21;;;;;;;36.97;18.97;;;4.20;96.20;;;;;;5016138;28;20199;-94
2022/12/24 02:01:50;;;;;;;37.03;19.50;;;4.20;96.20;;;;;;5017018;28;20188;-93
2022/12/24 02:04:38;;;;;;;31.43;18.20;;;4.20;96.20;;;;;;5011670;28;20204;-93
2022/12/24 02:07:04;;;;;;;35.93;17.33;;;4.20;96.20;;;;;;4997784;28;20673;-93
2022/12/24 02:09:32;;;;;;;37.27;18.07;;;4.20;96.20;;;;;;4997463;28;20210;-93
2022/12/24 02:11:58;;;;;;;41.30;18.80;;;4.20;96.20;;;;;;4997473;28;20204;-93
2022/12/24 02:14:25;;;;;;;47.30;19.77;;;4.20;96.20;;;;;;4997601;28;20200;-93
2022/12/24 02:17:23;;;;;;;38.23;19.63;;;4.30;96.20;;;;;;4997434;28;20219;-93
2022/12/24 02:20:20;;;;;;;40.67;19.60;;;4.30;96.20;;;;;;4998132;28;20185;-93
2022/12/24 02:23:13;;;;;;;41.23;18.73;;;4.20;96.20;;;;;;4997462;28;20222;-93
2022/12/24 02:26:10;;;;;;;42.33;19.20;;;4.30;96.20;;;;;;5000458;28;20212;-93
2022/12/24 02:29:00;;;;;;;47.03;19.50;;;4.20;96.20;;;;;;5003533;28;20647;-93
2022/12/24 02:32:16;;;;;;;44.03;21.27;;;4.30;96.20;;;;;;5008212;28;20587;-94
2022/12/24 02:35:03;;;;;;;38.10;19.03;;;4.30;96.20;;;;;;5009336;28;20203;-93
2022/12/24 02:37:47;;;;;;;39.23;19.20;;;4.20;96.20;;;;;;5023445;28;20164;-93
2022/12/24 02:40:18;;;;;;;49.07;19.67;;;4.20;96.20;;;;;;5003554;28;20192;-93
2022/12/24 02:43:16;;;;;;;42.83;19.27;;;4.30;96.30;;;;;;5005546;28;20181;-94
2022/12/24 02:46:39;;;;;;;36.90;18.40;;;4.20;96.30;;;;;;4998045;28;20208;-94
2022/12/24 02:50:04;;;;;;;44.17;19.10;;;4.30;96.30;;;;;;5014372;28;20179;-94
2022/12/24 02:53:36;;;;;;;45.87;19.47;;;4.30;96.30;;;;;;5009824;28;20185;-95
2022/12/24 02:56:44;;;;;;;41.93;18.50;;;4.30;96.30;;;;;;5011893;28;20208;-95
2022/12/24 02:59:58;;;;;;;;;;;;;;;;;;;;;
2022/12/24 06:25:26;;;;;;;29.90;23.53;;;4.30;96.40;;;;;;5028614;28;20239;-94
2022/12/24 06:27:57;;;;;;;29.97;23.60;;;4.30;96.40;;;;;;5009903;28;20193;-94
2022/12/24 06:30:23;;;;;;;27.17;22.23;;;4.40;96.40;;;;;;5007032;28;20638;-94
2022/12/24 06:32:58;;;;;;;26.50;23.33;;;4.30;96.40;;;;;;5009537;28;20203;-95
2022/12/24 06:35:33;;;;;;;26.30;23.10;;;4.30;96.40;;;;;;5009084;28;20685;-94
2022/12/24 06:38:07;;;;;;;31.83;25.10;;;4.40;96.40;;;;;;5009457;28;20176;-94
2022/12/24 06:40:32;;;;;;;33.17;24.93;;;4.30;96.40;;;;;;5005831;28;20183;-93
2022/12/24 06:43:13;;;;;;;35.53;26.10;;;4.40;96.40;;;;;;5010647;28;20191;-94
2022/12/24 06:45:42;;;;;;;35.90;25.47;;;4.30;96.40;;;;;;5010201;28;20562;-94
2022/12/24 06:48:08;;;;;;;30.17;25.53;;;4.40;96.40;;;;;;5007933;28;20204;-94
2022/12/24 06:50:34;;;;;;;32.27;25.90;;;4.40;96.40;;;;;;5009522;28;20281;-94
2022/12/24 06:56:17;;;;;;;31.97;26.50;;;4.40;96.40;;;;;;5077101;22;20248;-92
2022/12/24 06:59:01;;;;;;;30.93;26.60;;;4.40;96.40;;;;;;5026444;28;20269;-92
2022/12/24 07:02:03;;;;;;;31.67;27.13;;;4.40;96.40;;;;;;5029931;28;20224;-92
2022/12/24 07:04:41;;;;;;;33.50;27.63;;;4.40;96.40;;;;;;5029989;28;20200;-92
2022/12/24 07:19:49;;;;;;;34.33;27.97;;;4.50;96.40;;;;;;4970325;29;20254;-94
2022/12/24 07:49:35;;;;;;;41.03;33.97;;;4.60;96.40;;;;;;5073296;22;20231;-94
2022/12/24 07:52:09;;;;;;;39.80;35.23;;;4.50;96.40;;;;;;5036059;28;20181;-93
2022/12/24 07:54:41;;;;;;;40.97;34.13;;;4.60;96.40;;;;;;5037626;28;20209;-92
2022/12/24 07:57:20;;;;;;;;;;;;;;;;;;;;;
2022/12/24 07:59:51;;;;;;;46.40;34.87;;;4.60;96.40;;;;;;5041372;28;20189;-94
2022/12/24 08:02:35;;;;;;;42.33;35.80;;;4.60;96.40;;;;;;5039884;28;20173;-94
2022/12/24 08:05:27;;;;;;;40.40;35.00;;;4.60;96.40;;;;;;5038661;28;20272;-93
2022/12/24 08:08:09;;;;;;;40.27;34.63;;;4.60;96.40;;;;;;4981510;28;20244;-93
2022/12/24 08:10:46;;;;;;;44.50;36.93;;;4.60;96.40;;;;;;4982361;28;20170;-94
2022/12/24 08:54:43;;;;;;;41.53;35.40;;;4.80;96.60;;;;;;5448010;22;20335;-91
2022/12/24 08:57:09;;;;;;;40.57;36.17;;;4.80;96.60;;;;;;5038395;28;20174;-91
2022/12/24 08:59:34;;;;;;;40.43;36.47;;;4.90;96.60;;;;;;5038307;28;20189;-91
2022/12/24 09:02:01;;;;;;;39.87;35.70;;;4.90;96.60;;;;;;5319817;22;20256;-92
2022/12/24 09:04:26;;;;;;;41.73;36.30;;;4.90;96.60;;;;;;5031586;28;20192;-91
2022/12/24 09:06:58;;;;;;;40.27;36.17;;;4.90;96.60;;;;;;5037526;28;20197;-91
2022/12/24 10:44:53;;;;;;;68.43;63.53;;;5.30;96.70;;;;;;4867297;26;20209;-92
2022/12/24 10:47:21;;;;;;;77.70;72.20;;;5.30;96.70;;;;;;5008622;28;20300;-92
2022/12/24 10:49:53;;;;;;;84.03;77.27;;;5.30;96.70;;;;;;5013226;28;20185;-92
2022/12/24 10:52:23;;;;;;;77.97;72.40;;;5.30;96.70;;;;;;5020771;28;20189;-93
2022/12/24 10:55:18;;;;;;;80.03;74.57;;;5.30;96.70;;;;;;5020930;28;20245;-92
2022/12/24 11:03:22;;;;;;;80.17;74.83;;;5.50;96.70;;;;;;4216526;26;20219;-92
2022/12/24 11:39:59;;;;;;;76.10;70.67;;;5.60;96.70;;;;;;1363695;26;20204;-91
2022/12/24 11:42:37;;;;;;;78.23;72.50;;;5.60;96.60;;;;;;5033591;28;20168;-92
2022/12/24 11:45:23;;;;;;;81.07;75.47;;;5.60;96.70;;;;;;5024832;28;20201;-93
2022/12/24 11:47:49;;;;;;;81.37;75.33;;;5.70;96.70;;;;;;5014768;28;20208;-93
2022/12/24 11:50:31;;;;;;;78.87;73.17;;;5.70;96.70;;;;;;5021231;28;20181;-92
2022/12/24 11:53:09;;;;;;;80.63;75.13;;;5.80;96.70;;;;;;5021100;28;20166;-93
2022/12/24 11:55:39;;;;;;;80.00;74.63;;;5.80;96.70;;;;;;5020308;28;20186;-90
2022/12/24 11:58:13;;;;;;;76.53;71.37;;;5.80;96.70;;;;;;5021404;28;20245;-89
2022/12/24 12:00:40;;;;;;;82.40;76.90;;;5.80;96.70;;;;;;5021542;28;20162;-89
2022/12/24 12:06:38;;;;;;;83.90;78.03;;;5.90;96.70;;;;;;5091241;22;20231;-91
2022/12/24 12:09:20;;;;;;;85.07;78.87;;;6.00;96.70;;;;;;5035675;28;20161;-92
2022/12/24 12:11:51;;;;;;;79.40;73.33;;;6.10;96.70;;;;;;5106896;22;20244;-90
2022/12/24 12:14:26;;;;;;;75.57;69.83;;;6.10;96.80;;;;;;5051545;22;20233;-92
2022/12/24 12:17:03;;;;;;;75.40;69.53;;;6.20;96.80;;;;;;5040592;28;20164;-90
2022/12/24 12:19:41;;;;;;;69.63;64.30;;;6.20;96.80;;;;;;5041274;28;20174;-90
2022/12/24 12:22:18;;;;;;;73.23;66.87;;;6.10;96.80;;;;;;5037657;28;20178;-92
2022/12/24 12:24:52;;;;;;;70.20;64.27;;;6.10;96.80;;;;;;5035529;28;20197;-91
2022/12/24 12:27:21;;;;;;;71.43;65.17;;;6.20;96.80;;;;;;5030043;28;20201;-91
2022/12/24 12:29:56;;;;;;;74.63;68.60;;;6.30;96.80;;;;;;5045288;22;20240;-92
2022/12/24 12:32:30;;;;;;;72.33;65.73;;;6.30;96.80;;;;;;5027317;28;20168;-92
2022/12/24 12:35:24;;;;;;;72.10;65.60;;;6.30;96.80;;;;;;5035108;28;20266;-89
2022/12/24 12:38:21;;;;;;;74.03;66.60;;;6.30;96.80;;;;;;5040337;28;20215;-89
2022/12/24 12:41:13;;;;;;;70.63;64.13;;;6.30;96.80;;;;;;5032543;28;20682;-92
2022/12/24 12:44:13;;;;;;;69.47;62.63;;;6.40;96.90;;;;;;5016928;28;20185;-92
2022/12/24 12:47:10;;;;;;;64.97;57.97;;;6.50;96.90;;;;;;5024854;28;20197;-92
2022/12/24 12:49:46;;;;;;;69.47;58.97;;;6.60;97.00;;;;;;5034441;28;20203;-93
2022/12/24 12:52:35;;;;;;;67.10;52.70;;;6.70;97.00;;;;;;5031980;28;20162;-92
2022/12/24 12:55:34;;;;;;;70.27;51.90;;;7.00;97.00;;;;;;5025069;28;20202;-92
2022/12/24 12:58:45;;;;;;;62.57;51.73;;;7.20;97.10;;;;;;5031283;28;20264;-93
2022/12/24 13:01:24;;;;;;;58.03;34.27;;;7.30;97.10;;;;;;5028267;28;20250;-92
2022/12/24 13:04:28;;;;;;;56.20;36.53;;;7.30;97.00;;;;;;5038248;28;20706;-92
2022/12/24 13:07:22;;;;;;;54.73;32.47;;;7.30;97.00;;;;;;5031706;28;20204;-92
2022/12/24 13:09:55;;;;;;;55.20;31.90;;;7.20;97.10;;;;;;5039987;28;20237;-89
2022/12/24 13:12:39;;;;;;;56.53;28.40;;;7.20;97.00;;;;;;5040895;28;20150;-90
2022/12/24 13:15:18;;;;;;;58.87;26.63;;;7.20;97.00;;;;;;5037410;28;20192;-91
2022/12/24 13:17:56;;;;;;;49.20;24.60;;;7.10;97.10;;;;;;5038968;28;20229;-91
2022/12/24 13:20:30;;;;;;;55.77;24.20;;;7.00;97.00;;;;;;5039946;28;20185;-90
2022/12/24 13:22:55;;;;;;;51.27;23.60;;;7.00;97.00;;;;;;5034344;28;20157;-92
2022/12/24 13:25:55;;;;;;;55.47;23.70;;;6.90;97.00;;;;;;5038064;28;20205;-92
2022/12/24 13:28:23;;;;;;;48.77;21.93;;;7.00;97.00;;;;;;5023097;28;20240;-92
2022/12/24 13:30:59;;;;;;;51.73;22.13;;;6.90;97.10;;;;;;5036701;28;20260;-91
2022/12/24 13:33:46;;;;;;;47.50;22.17;;;6.90;97.00;;;;;;5039579;28;20237;-91
2022/12/24 13:36:18;;;;;;;64.97;21.57;;;7.00;97.10;;;;;;5025971;28;20184;-92
2022/12/24 13:38:58;;;;;;;63.10;18.03;;;7.30;97.20;;;;;;5020748;28;20252;-92
2022/12/24 13:41:53;;;;;;;72.30;18.33;;;7.50;97.20;;;;;;5023407;28;20267;-91
2022/12/24 13:44:32;;;;;;;60.03;17.73;;;7.50;97.20;;;;;;5033484;28;20177;-90
2022/12/24 13:47:13;;;;;;;57.77;18.43;;;7.40;97.10;;;;;;5039526;28;20208;-93
2022/12/24 13:49:42;;;;;;;52.43;16.73;;;7.30;97.10;;;;;;5039380;28;20153;-88
2022/12/24 13:52:19;;;;;;;73.33;17.40;;;7.30;97.10;;;;;;5038780;28;20212;-89
2022/12/24 13:55:00;;;;;;;64.43;17.03;;;7.30;97.10;;;;;;5035631;28;20196;-92
2022/12/24 13:57:47;;;;;;;68.57;17.27;;;7.30;97.10;;;;;;5036273;28;20355;-90
2022/12/24 14:00:24;;;;;;;52.60;15.70;;;7.40;97.10;;;;;;5039326;28;20233;-89
2022/12/24 14:03:11;;;;;;;57.20;17.43;;;7.40;97.10;;;;;;5036933;28;20181;-91
2022/12/24 14:06:23;;;;;;;61.50;14.73;;;7.40;97.10;;;;;;5037160;28;20205;-93
2022/12/24 14:11:26;;;;;;;65.77;14.50;;;7.50;97.10;;;;;;5346341;22;20253;-92
2022/12/24 14:19:59;;;;;;;62.27;14.77;;;7.70;97.10;;;;;;4815686;26;20239;-92
2022/12/24 14:22:32;;;;;;;63.07;15.00;;;7.70;97.10;;;;;;5041074;28;20220;-90
2022/12/24 14:25:02;;;;;;;69.77;14.97;;;7.60;97.10;;;;;;5030519;28;20223;-91
2022/12/24 14:27:37;;;;;;;59.07;14.97;;;7.60;97.00;;;;;;5021359;28;20189;-90
2022/12/24 14:30:15;;;;;;;53.27;13.47;;;7.60;97.00;;;;;;5022630;28;20174;-89
2022/12/24 14:32:41;;;;;;;55.47;14.10;;;7.40;97.00;;;;;;5021898;28;20173;-88
2022/12/24 14:35:12;;;;;;;65.27;15.30;;;7.30;96.90;;;;;;5022147;28;20196;-89
2022/12/24 14:37:44;;;;;;;52.77;14.23;;;7.20;96.90;;;;;;5021290;28;20165;-90
2022/12/24 14:40:20;;;;;;;67.50;16.53;;;7.10;96.90;;;;;;5022103;28;20230;-91
2022/12/24 14:42:56;;;;;;;66.73;16.83;;;7.10;96.90;;;;;;5022075;28;20150;-88
2022/12/24 14:45:45;;;;;;;58.83;14.00;;;7.10;96.90;;;;;;5018454;28;20188;-91
2022/12/24 14:48:37;;;;;;;63.53;17.07;;;7.10;96.80;;;;;;5019759;28;20216;-88
2022/12/24 14:51:21;;;;;;;52.23;15.07;;;7.10;96.90;;;;;;5015759;28;20157;-88
2022/12/24 14:53:49;;;;;;;59.10;16.00;;;7.10;96.90;;;;;;5022015;28;20165;-88
2022/12/24 14:56:18;;;;;;;57.73;15.30;;;7.20;96.80;;;;;;5020346;28;20164;-88
2022/12/24 14:58:44;;;;;;;69.43;16.90;;;7.30;96.90;;;;;;5019417;28;20158;-91
2022/12/24 15:08:59;;;;;;;60.30;14.30;;;7.30;96.80;;;;;;5180106;23;20212;-92
2022/12/24 15:12:04;;;;;;;54.70;13.37;;;7.30;96.70;;;;;;5104014;23;20209;-91
2022/12/24 15:32:37;;;;;;;64.70;14.33;;;7.40;96.80;;;;;;659013;22;20514;-91
2022/12/24 15:35:33;;;;;;;73.67;13.77;;;7.60;96.90;;;;;;5035263;28;20216;-90
2022/12/24 15:38:00;;;;;;;51.03;11.90;;;7.60;96.90;;;;;;5010941;28;20177;-92
2022/12/24 15:40:26;;;;;;;51.03;13.70;;;7.50;96.80;;;;;;5037751;28;20160;-90
2022/12/24 15:42:52;;;;;;;58.97;15.23;;;7.60;96.90;;;;;;5037084;28;20166;-91
2022/12/24 15:45:21;;;;;;;52.30;14.27;;;7.60;96.80;;;;;;5038032;28;20186;-88
2022/12/24 15:50:35;;;;;;;51.60;13.57;;;7.50;96.90;;;;;;5455539;22;20232;-92
2022/12/24 15:53:04;;;;;;;40.80;15.03;;;7.70;96.90;;;;;;5034133;28;20212;-93
2022/12/24 15:55:44;;;;;;;44.83;12.20;;;7.70;97.00;;;;;;5038879;28;20240;-91
2022/12/24 15:58:29;;;;;;;52.20;14.17;;;7.70;97.00;;;;;;5041473;28;20168;-93
2022/12/24 16:01:12;;;;;;;40.67;14.52;;;7.70;97.00;;;;;;5040218;28;20438;-93
2022/12/24 16:09:02;;;;;;;36.27;12.33;;;7.70;96.90;;;;;;5589972;22;20205;-92
2022/12/24 16:11:37;;;;;;;48.73;12.47;;;7.70;97.00;;;;;;5041360;28;20165;-90
2022/12/24 16:32:33;;;;;;;31.07;10.83;;;7.80;96.80;;;;;;3914719;22;20272;-91
2022/12/24 16:35:00;;;;;;;46.47;12.17;;;7.90;96.80;;;;;;5032975;28;20201;-91
2022/12/24 16:37:25;;;;;;;44.93;14.10;;;7.90;96.70;;;;;;5029547;28;20220;-92
2022/12/24 16:39:51;;;;;;;42.10;13.13;;;8.00;96.70;;;;;;5036182;28;20181;-92
2022/12/24 16:45:02;;;;;;;32.07;10.60;;;8.00;96.60;;;;;;5040112;28;20209;-90
2022/12/24 16:47:31;;;;;;;38.13;12.87;;;7.90;96.50;;;;;;5036691;28;20209;-91
2022/12/24 16:49:58;;;;;;;35.10;11.00;;;7.90;96.50;;;;;;5035655;28;20189;-92
2022/12/24 16:52:27;;;;;;;37.53;11.73;;;7.90;96.50;;;;;;5039622;28;20198;-90
2022/12/24 16:54:53;;;;;;;37.13;11.37;;;7.90;96.50;;;;;;5040164;28;20182;-90
2022/12/24 16:57:19;;;;;;;36.73;13.20;;;7.90;96.50;;;;;;5038585;28;20240;-92
2022/12/24 16:59:44;;;;;;;33.23;11.90;;;7.90;96.50;;;;;;5031754;28;20236;-90
2022/12/24 17:02:16;;;;;;;36.40;11.80;;;7.90;96.50;;;;;;5033721;28;20197;-92
2022/12/24 17:04:41;;;;;;;38.33;12.27;;;8.00;96.40;;;;;;5036650;28;20189;-91
2022/12/24 17:07:08;;;;;;;30.73;10.57;;;7.90;96.30;;;;;;5040290;28;20193;-91
2022/12/24 17:09:34;;;;;;;35.47;11.67;;;7.90;96.40;;;;;;5040148;28;20158;-89
2022/12/24 17:11:59;;;;;;;41.93;14.13;;;7.90;96.30;;;;;;5040118;28;20246;-87
2022/12/24 17:14:25;;;;;;;34.27;10.80;;;7.90;96.30;;;;;;5039611;28;20197;-91
2022/12/24 17:16:50;;;;;;;40.60;10.60;;;7.90;96.30;;;;;;5037452;28;20219;-92
2022/12/24 17:19:16;;;;;;;38.53;12.33;;;7.90;96.30;;;;;;5034354;28;20182;-92
2022/12/24 17:21:42;;;;;;;30.57;11.03;;;8.00;96.20;;;;;;5039873;28;20256;-90
2022/12/24 17:24:08;;;;;;;39.73;11.37;;;7.80;96.20;;;;;;5035885;28;20200;-91
2022/12/24 17:26:34;;;;;;;43.50;11.93;;;7.90;96.10;;;;;;5035533;28;20177;-91
2022/12/24 17:29:02;;;;;;;29.10;10.17;;;7.90;96.10;;;;;;5037674;28;20197;-90
2022/12/24 17:31:28;;;;;;;35.47;10.87;;;7.90;96.00;;;;;;5038276;28;20188;-89
2022/12/24 17:33:54;;;;;;;29.03;10.27;;;7.90;96.00;;;;;;5038557;28;20208;-91
2022/12/24 17:36:20;;;;;;;41.73;10.60;;;7.90;96.00;;;;;;5039451;28;20181;-89
2022/12/24 17:38:46;;;;;;;42.67;11.77;;;7.90;96.00;;;;;;5035403;28;20272;-91
2022/12/24 17:41:16;;;;;;;39.67;11.47;;;7.90;96.00;;;;;;5033666;28;20177;-92
2022/12/24 17:43:42;;;;;;;33.53;9.73;;;7.90;95.90;;;;;;5035037;28;20185;-90
2022/12/24 17:46:10;;;;;;;34.37;11.00;;;7.90;95.80;;;;;;5030413;28;20188;-91
2022/12/24 17:48:36;;;;;;;38.27;10.50;;;7.90;95.80;;;;;;5034464;28;20190;-91
2022/12/24 17:51:04;;;;;;;33.70;10.20;;;7.90;95.80;;;;;;5039062;28;20173;-91
2022/12/24 17:53:34;;;;;;;53.97;14.03;;;7.90;95.80;;;;;;5038136;28;20176;-90
2022/12/24 17:55:59;;;;;;;43.60;12.10;;;7.90;95.80;;;;;;5033564;28;20232;-91
2022/12/24 17:58:25;;;;;;;40.03;10.33;;;7.90;95.70;;;;;;5033864;28;20181;-91
2022/12/24 18:00:51;;;;;;;45.27;10.33;;;7.90;95.70;;;;;;5035870;28;20189;-91
2022/12/24 18:03:17;;;;;;;33.63;10.73;;;7.90;95.70;;;;;;5035402;28;20182;-89
2022/12/24 18:05:43;;;;;;;43.97;12.60;;;7.90;95.70;;;;;;5038021;28;20209;-92
2022/12/24 18:10:47;;;;;;;37.97;11.57;;;7.90;95.70;;;;;;5246442;22;20200;-90
2022/12/24 18:13:12;;;;;;;40.63;9.40;;;7.90;95.70;;;;;;5038764;28;20181;-88
2022/12/24 18:15:39;;;;;;;42.50;12.10;;;7.90;95.60;;;;;;5036978;28;20189;-91
2022/12/24 18:18:06;;;;;;;32.47;11.27;;;7.90;95.70;;;;;;5033474;28;20171;-91
2022/12/24 18:20:35;;;;;;;33.10;9.40;;;7.90;95.70;;;;;;5034203;28;20173;-92
2022/12/24 18:23:01;;;;;;;39.90;9.97;;;7.90;95.60;;;;;;5036781;28;20643;-90
2022/12/24 18:25:28;;;;;;;37.20;9.73;;;7.90;95.70;;;;;;5027361;28;20744;-90
2022/12/24 18:27:56;;;;;;;39.07;9.77;;;7.80;95.70;;;;;;5017159;28;20208;-91
2022/12/24 18:30:25;;;;;;;33.97;9.17;;;7.90;95.70;;;;;;5034607;28;20170;-92
2022/12/24 18:32:54;;;;;;;39.20;10.63;;;7.90;95.70;;;;;;5035741;28;20178;-92
2022/12/24 18:35:23;;;;;;;31.40;10.00;;;7.80;95.70;;;;;;5036399;28;20188;-91
2022/12/24 18:40:35;;;;;;;32.07;10.80;;;7.90;95.70;;;;;;3192167;26;20197;-90
2022/12/24 18:43:07;;;;;;;31.87;11.87;;;8.00;95.60;;;;;;5018089;28;20184;-92
2022/12/24 18:45:33;;;;;;;29.70;10.13;;;8.00;95.50;;;;;;5018545;28;20210;-91
2022/12/24 18:48:05;;;;;;;37.70;11.67;;;8.00;95.50;;;;;;5018655;28;20254;-91
2022/12/24 18:50:35;;;;;;;37.97;10.97;;;7.90;95.40;;;;;;5018559;28;20177;-91
2022/12/24 19:01:39;;;;;;;29.47;10.37;;;7.80;95.30;;;;;;5038795;22;20228;-92
2022/12/24 19:04:09;;;;;;;32.80;10.93;;;7.80;95.20;;;;;;5034179;28;20527;-92
2022/12/24 19:18:08;;;;;;;36.40;14.03;;;7.80;95.10;;;;;;5195224;22;20213;-90
2022/12/24 19:25:45;;;;;;;33.57;12.87;;;7.70;95.20;;;;;;3234224;26;20220;-92
2022/12/24 19:28:10;;;;;;;45.77;16.20;;;7.80;95.20;;;;;;5032604;28;20200;-89
2022/12/24 19:30:38;;;;;;;32.57;14.30;;;7.80;95.20;;;;;;5041862;28;20281;-89
2022/12/24 19:33:04;;;;;;;31.23;11.93;;;7.70;95.10;;;;;;5041976;28;20181;-90
2022/12/24 19:35:30;;;;;;;33.90;13.40;;;7.60;95.00;;;;;;5041316;28;20192;-89
2022/12/24 19:37:56;;;;;;;30.43;13.67;;;7.60;95.10;;;;;;5042072;28;20210;-89
2022/12/24 19:40:22;;;;;;;48.17;14.47;;;7.50;95.10;;;;;;5042554;28;20227;-88
2022/12/24 19:42:49;;;;;;;40.27;14.27;;;7.40;95.00;;;;;;5041846;28;20185;-90
2022/12/24 19:45:19;;;;;;;34.23;13.37;;;7.30;95.00;;;;;;5039419;28;20181;-90
2022/12/24 19:47:46;;;;;;;35.63;13.07;;;7.30;95.00;;;;;;5038157;28;20216;-91
2022/12/24 19:50:13;;;;;;;33.63;12.27;;;7.20;95.00;;;;;;5040640;28;20178;-90
2022/12/24 19:52:38;;;;;;;32.93;14.40;;;7.10;95.00;;;;;;5036699;28;20545;-91
2022/12/24 19:55:04;;;;;;;39.43;13.17;;;7.10;95.10;;;;;;5040259;28;20177;-92
2022/12/24 19:57:30;;;;;;;31.80;12.57;;;7.10;95.10;;;;;;5038695;28;20236;-90
2022/12/24 19:59:55;;;;;;;31.30;12.93;;;7.00;95.00;;;;;;5040928;28;20214;-92
2022/12/24 20:02:21;;;;;;;27.90;13.47;;;6.90;95.00;;;;;;5041415;28;20181;-91
2022/12/24 20:04:47;;;;;;;32.73;13.00;;;6.80;95.00;;;;;;5041502;28;20209;-90
2022/12/24 20:07:12;;;;;;;29.10;13.67;;;6.80;95.00;;;;;;5038783;28;20220;-91
2022/12/24 20:09:38;;;;;;;29.37;12.57;;;6.70;94.90;;;;;;5038716;28;20173;-90
2022/12/24 20:12:04;;;;;;;32.37;12.50;;;6.50;94.90;;;;;;5041326;28;20174;-92
2022/12/24 20:14:29;;;;;;;41.70;13.47;;;6.40;95.00;;;;;;5040678;28;20189;-88
2022/12/24 20:16:55;;;;;;;31.27;12.43;;;6.40;95.00;;;;;;5035796;28;20190;-92
2022/12/24 20:19:21;;;;;;;28.40;11.63;;;6.30;95.00;;;;;;5021817;28;20192;-92
2022/12/24 20:21:46;;;;;;;31.57;10.77;;;6.20;95.00;;;;;;5025663;28;20177;-91
2022/12/24 20:24:12;;;;;;;32.80;11.03;;;6.10;95.20;;;;;;5028408;28;20288;-91
2022/12/24 20:26:38;;;;;;;28.53;11.57;;;6.10;95.30;;;;;;5022000;28;20276;-92
2022/12/24 20:29:05;;;;;;;25.77;11.43;;;6.00;95.40;;;;;;5032504;28;20189;-92
2022/12/24 20:31:31;;;;;;;31.40;12.03;;;6.00;95.60;;;;;;5035358;28;20169;-91
2022/12/24 20:33:58;;;;;;;27.10;11.70;;;6.10;95.80;;;;;;5036870;28;20181;-92
2022/12/24 20:36:26;;;;;;;30.00;11.87;;;6.20;95.80;;;;;;5029898;28;20181;-90
2022/12/24 20:38:52;;;;;;;24.47;10.50;;;6.20;95.80;;;;;;5038471;28;20205;-90
2022/12/24 20:41:20;;;;;;;30.37;10.97;;;6.20;95.80;;;;;;5039451;28;20196;-91
2022/12/24 20:43:46;;;;;;;38.10;12.53;;;6.20;95.80;;;;;;5038975;28;20180;-88
2022/12/24 20:46:11;;;;;;;27.40;11.30;;;6.20;95.80;;;;;;5039385;28;20228;-92
2022/12/24 20:48:40;;;;;;;30.77;10.77;;;6.20;95.70;;;;;;5038858;28;20204;-90
2022/12/24 20:51:07;;;;;;;24.10;10.63;;;6.20;95.70;;;;;;5038778;28;20181;-92
2022/12/24 20:53:33;;;;;;;33.03;11.33;;;6.20;95.70;;;;;;5035462;28;20185;-92
2022/12/24 20:56:02;;;;;;;31.97;10.87;;;6.20;95.60;;;;;;5038996;28;20185;-92
2022/12/24 20:58:35;;;;;;;26.10;10.93;;;6.20;95.60;;;;;;5032312;28;20181;-92
2022/12/24 21:01:17;;;;;;;37.30;12.50;;;6.20;95.60;;;;;;5030939;28;20177;-91
2022/12/24 21:03:49;;;;;;;38.53;11.73;;;6.20;95.60;;;;;;5029244;28;20173;-93
2022/12/24 21:06:16;;;;;;;31.77;12.27;;;6.20;95.50;;;;;;5027278;28;20174;-92
2022/12/24 21:08:42;;;;;;;33.90;11.93;;;6.20;95.50;;;;;;5028518;28;20208;-91
2022/12/24 21:13:55;;;;;;;40.23;11.80;;;6.20;95.50;;;;;;5034027;28;20212;-91
2022/12/24 21:16:21;;;;;;;37.17;12.80;;;6.20;95.50;;;;;;5035197;28;20272;-91
2022/12/24 21:18:50;;;;;;;34.43;12.70;;;6.20;95.40;;;;;;5028334;28;20220;-92
2022/12/24 21:21:16;;;;;;;37.17;11.13;;;6.20;95.30;;;;;;5034166;28;20165;-92
2022/12/24 21:23:41;;;;;;;35.17;13.53;;;6.30;95.30;;;;;;5032077;28;20196;-90
2022/12/24 21:26:07;;;;;;;31.20;12.03;;;6.30;95.30;;;;;;5022563;28;20236;-91
2022/12/24 21:28:33;;;;;;;35.07;11.77;;;6.10;95.10;;;;;;5035028;28;20213;-92
2022/12/24 21:30:58;;;;;;;33.83;11.53;;;6.10;95.20;;;;;;5033134;28;20182;-92
2022/12/24 21:33:24;;;;;;;33.87;11.87;;;6.00;95.20;;;;;;5036144;28;20209;-92
2022/12/24 21:35:59;;;;;;;34.63;13.47;;;5.90;95.20;;;;;;5038277;28;20213;-89
2022/12/24 21:38:33;;;;;;;27.97;13.67;;;5.90;95.20;;;;;;5039568;28;20158;-92
2022/12/24 21:41:08;;;;;;;27.63;14.77;;;5.90;95.30;;;;;;5039228;28;20164;-92
2022/12/24 21:43:35;;;;;;;33.60;14.47;;;5.80;95.30;;;;;;5038418;28;20176;-92
2022/12/24 21:46:08;;;;;;;35.07;13.60;;;5.80;95.30;;;;;;5038440;28;20293;-88
2022/12/24 21:51:18;;;;;;;27.83;13.13;;;5.80;95.40;;;;;;5040214;28;20157;-89
2022/12/24 21:57:51;;;;;;;28.93;13.00;;;6.00;95.60;;;;;;5037671;28;20179;-89
2022/12/24 21:59:32;;;;;;;32.57;14.93;;;6.00;95.50;;;;;;5039817;28;20179;-90
2022/12/24 22:01:57;;;;;;;39.07;13.53;;;6.10;95.60;;;;;;5038974;28;20156;-91
2022/12/24 22:15:11;;;;;;;34.90;15.60;;;6.30;95.60;;;;;;5198981;22;20231;-91
2022/12/24 22:17:40;;;;;;;30.47;14.23;;;6.30;95.60;;;;;;5034056;28;20191;-91
2022/12/24 22:20:09;;;;;;;32.40;14.87;;;6.30;95.70;;;;;;5177745;22;20213;-91
2022/12/24 22:22:35;;;;;;;34.47;14.63;;;6.30;95.70;;;;;;5031921;28;20169;-89
2022/12/24 22:25:26;;;;;;;44.03;16.13;;;6.40;95.70;;;;;;5038361;28;20244;-90
2022/12/24 22:27:52;;;;;;;36.93;15.50;;;6.40;95.70;;;;;;5037526;28;20231;-92
2022/12/24 22:30:17;;;;;;;30.67;14.67;;;6.40;95.70;;;;;;5038997;28;20161;-89
2022/12/24 22:32:43;;;;;;;45.77;16.43;;;6.60;95.70;;;;;;5038872;28;20182;-90
2022/12/24 22:35:08;;;;;;;35.77;17.20;;;6.60;95.70;;;;;;5038403;28;20225;-90
2022/12/24 22:37:34;;;;;;;42.10;16.63;;;6.60;95.70;;;;;;5038522;28;20173;-91
2022/12/24 22:39:59;;;;;;;52.77;18.23;;;6.60;95.70;;;;;;5038774;28;20165;-91
2022/12/24 22:42:25;;;;;;;49.03;18.80;;;6.60;95.70;;;;;;5038684;28;20161;-89
2022/12/24 22:44:50;;;;;;;41.33;15.37;;;6.70;95.70;;;;;;5038575;28;20178;-88
2022/12/24 22:47:16;;;;;;;46.90;19.77;;;6.70;95.70;;;;;;5038577;28;20257;-89
2022/12/24 22:49:41;;;;;;;42.80;17.87;;;6.60;95.60;;;;;;5038597;28;20145;-88
2022/12/24 22:52:07;;;;;;;36.87;17.80;;;6.50;95.50;;;;;;5038617;28;20162;-88
2022/12/24 22:54:33;;;;;;;36.60;18.10;;;6.40;95.50;;;;;;5038497;28;20173;-88
2022/12/24 22:56:58;;;;;;;41.73;18.07;;;6.30;95.40;;;;;;5038035;28;20166;-89
2022/12/24 22:59:24;;;;;;;52.17;18.40;;;6.10;95.40;;;;;;5038357;28;20161;-89